createdAt,value
2023-05-08T00:02:05.342Z,101970.09
2023-05-08T00:04:34.935Z,101978.25
2023-05-08T00:07:03.201Z,101977.03
2023-05-08T00:09:31.383Z,101973.88
2023-05-08T00:11:59.578Z,101975.75
2023-05-08T00:14:27.810Z,101973.41
2023-05-08T00:16:56.047Z,101975.28
2023-05-08T00:19:24.614Z,101974.91
2023-05-08T00:21:54.211Z,101969.78
2023-05-08T00:24:22.711Z,101969.75
2023-05-08T00:26:50.909Z,101962.28
2023-05-08T00:29:19.139Z,101970.06
2023-05-08T00:31:47.545Z,101955.16
2023-05-08T00:34:15.883Z,101956.72
2023-05-08T00:36:44.007Z,101957.41
2023-05-08T00:39:13.844Z,101961.28
2023-05-08T00:41:42.610Z,101961.63
2023-05-08T00:44:10.807Z,101953.81
2023-05-08T00:46:39.322Z,101957.28
2023-05-08T00:49:07.884Z,101960.34
2023-05-08T00:51:36.216Z,101955.28
2023-05-08T00:54:05.085Z,101964.63
2023-05-08T00:56:37.373Z,101962.25
2023-05-08T00:59:09.419Z,101969.66
2023-05-08T01:01:38.710Z,101970.81
2023-05-08T01:04:07.580Z,101969.59
2023-05-08T01:06:36.896Z,101971.13
2023-05-08T01:09:05.409Z,101976.16
2023-05-08T01:11:40.733Z,101980.41
2023-05-08T01:14:18.561Z,101978.88
2023-05-08T01:16:57.740Z,101979.22
2023-05-08T01:19:56.547Z,101972.47
2023-05-08T01:22:45.447Z,101974.72
2023-05-08T01:25:44.639Z,101961.00
2023-05-08T01:28:44.895Z,101962.09
2023-05-08T01:31:26.155Z,101960.44
2023-05-08T01:34:06.609Z,101965.47
2023-05-08T01:36:42.618Z,101978.34
2023-05-08T01:39:21.538Z,101968.56
2023-05-08T01:41:58.246Z,101972.09
2023-05-08T01:44:33.825Z,101975.63
2023-05-08T01:47:08.955Z,101975.63
2023-05-08T01:49:43.345Z,101976.41
2023-05-08T01:52:19.705Z,101975.63
2023-05-08T01:54:57.544Z,101975.19
2023-05-08T01:57:30.322Z,101976.34
2023-05-08T02:00:02.477Z,101975.91
2023-05-08T02:02:32.520Z,101978.19
2023-05-08T02:05:05.933Z,101988.34
2023-05-08T02:07:38.005Z,101977.38
2023-05-08T02:10:08.400Z,101981.22
2023-05-08T02:12:39.036Z,101983.56
2023-05-08T02:15:10.717Z,101987.81
2023-05-08T02:17:41.007Z,101993.59
2023-05-08T02:20:15.077Z,101993.19
2023-05-08T02:22:46.467Z,101987.66
2023-05-08T02:25:16.463Z,101994.69
2023-05-08T02:27:47.021Z,101996.19
2023-05-08T02:30:17.736Z,101996.19
2023-05-08T02:32:47.885Z,101992.63
2023-05-08T02:35:19.742Z,101987.09
2023-05-08T02:37:53.053Z,101996.00
2023-05-08T02:40:23.947Z,102001.81
2023-05-08T02:42:52.275Z,101997.50
2023-05-08T02:45:21.253Z,101997.50
2023-05-08T02:47:55.593Z,101992.41
2023-05-08T02:50:34.297Z,101997.44
2023-05-08T02:53:06.118Z,102000.50
2023-05-08T02:55:41.158Z,101998.94
2023-05-08T02:58:18.767Z,101989.13
2023-05-08T03:00:54.107Z,101984.72
2023-05-08T03:03:28.042Z,101994.75
2023-05-08T03:06:01.253Z,101982.97
2023-05-08T03:08:32.618Z,101978.66
2023-05-08T03:11:07.087Z,101991.50
2023-05-08T03:13:40.236Z,101992.28
2023-05-08T03:16:17.079Z,101988.78
2023-05-08T03:18:52.659Z,101986.84
2023-05-08T03:21:24.115Z,101989.25
2023-05-08T03:23:54.449Z,101977.97
2023-05-08T03:26:22.694Z,101977.97
2023-05-08T03:28:52.502Z,101978.66
2023-05-08T03:31:22.087Z,101986.00
2023-05-08T03:33:55.283Z,101989.44
2023-05-08T03:36:27.222Z,101984.34
2023-05-08T03:38:55.591Z,101980.84
2023-05-08T03:41:24.036Z,101986.28
2023-05-08T03:43:52.859Z,101984.72
2023-05-08T03:46:22.268Z,101982.81
2023-05-08T03:48:51.727Z,101976.31
2023-05-08T03:51:20.755Z,101975.16
2023-05-08T03:53:50.356Z,101977.97
2023-05-08T03:56:18.570Z,101988.16
2023-05-08T03:58:53.032Z,101981.22
2023-05-08T04:01:27.246Z,101979.69
2023-05-08T04:04:04.354Z,101984.44
2023-05-08T04:06:49.539Z,101990.31
2023-05-08T04:09:27.697Z,101987.66
2023-05-08T04:12:06.790Z,101997.06
2023-05-08T04:14:44.326Z,101988.50
2023-05-08T04:17:17.193Z,101987.03
2023-05-08T04:19:48.383Z,101988.59
2023-05-08T04:22:18.093Z,101994.13
2023-05-08T04:24:49.339Z,101988.31
2023-05-08T04:27:18.164Z,101990.31
2023-05-08T04:29:46.544Z,101984.50
2023-05-08T04:32:15.563Z,101984.09
2023-05-08T04:34:44.048Z,101996.28
2023-05-08T04:37:27.288Z,101992.00
2023-05-08T04:39:56.948Z,101992.00
2023-05-08T04:42:26.979Z,101995.19
2023-05-08T04:44:55.893Z,101998.34
2023-05-08T04:47:24.734Z,101993.69
2023-05-08T04:49:53.054Z,101991.75
2023-05-08T04:52:21.435Z,101996.03
2023-05-08T04:54:49.665Z,101995.34
2023-05-08T04:57:19.211Z,101993.00
2023-05-08T04:59:47.558Z,101996.53
2023-05-08T05:02:15.829Z,102000.00
2023-05-08T05:04:44.048Z,101999.16
2023-05-08T05:07:12.298Z,102003.69
2023-05-08T05:09:40.515Z,102014.63
2023-05-08T05:12:08.813Z,102009.97
2023-05-08T05:14:38.441Z,102020.88
2023-05-08T05:17:06.642Z,102022.50
2023-05-08T05:19:34.922Z,102027.94
2023-05-08T05:22:03.193Z,102031.09
2023-05-08T05:24:31.502Z,102029.25
2023-05-08T05:27:00.450Z,102030.31
2023-05-08T05:29:28.745Z,102036.97
2023-05-08T05:31:58.361Z,102036.59
2023-05-08T05:34:26.653Z,102030.03
2023-05-08T05:36:54.901Z,102037.44
2023-05-08T05:39:23.357Z,102040.88
2023-05-08T05:41:51.696Z,102044.38
2023-05-08T05:44:20.101Z,102048.00
2023-05-08T05:46:48.539Z,102053.22
2023-05-08T05:49:18.162Z,102057.50
2023-05-08T05:51:46.399Z,102054.84
2023-05-08T05:54:15.122Z,102057.28
2023-05-08T05:56:43.498Z,102057.78
2023-05-08T05:59:11.650Z,102062.59
2023-05-08T06:01:39.894Z,102062.66
2023-05-08T06:04:08.219Z,102072.50
2023-05-08T06:06:37.790Z,102063.25
2023-05-08T06:09:07.088Z,102070.69
2023-05-08T06:11:35.620Z,102060.97
2023-05-08T06:14:03.838Z,102066.88
2023-05-08T06:16:32.179Z,102075.09
2023-05-08T06:19:00.441Z,102070.41
2023-05-08T06:21:29.524Z,102067.00
2023-05-08T06:23:59.078Z,102075.22
2023-05-08T06:26:27.348Z,102077.63
2023-05-08T06:28:55.612Z,102066.34
2023-05-08T06:31:23.918Z,102080.84
2023-05-08T06:33:52.188Z,102085.56
2023-05-08T06:36:20.776Z,102081.69
2023-05-08T06:38:48.978Z,102082.13
2023-05-08T06:41:18.531Z,102087.63
2023-05-08T06:43:46.852Z,102083.75
2023-05-08T06:46:15.116Z,102076.34
2023-05-08T06:48:43.310Z,102079.50
2023-05-08T06:51:11.672Z,102077.19
2023-05-08T06:53:39.869Z,102088.50
2023-05-08T06:56:09.014Z,102081.06
2023-05-08T06:58:38.685Z,102081.06
2023-05-08T07:01:07.109Z,102086.56
2023-05-08T07:03:35.381Z,102089.00
2023-05-08T07:06:03.696Z,102088.69
2023-05-08T07:08:32.382Z,102091.91
2023-05-08T07:11:00.627Z,102083.41
2023-05-08T07:13:29.021Z,102094.81
2023-05-08T07:15:58.729Z,102081.56
2023-05-08T07:18:27.031Z,102094.16
2023-05-08T07:20:55.214Z,102091.50
2023-05-08T07:23:23.469Z,102092.78
2023-05-08T07:25:51.631Z,102095.63
2023-05-08T07:28:19.907Z,102094.53
2023-05-08T07:30:48.108Z,102086.81
2023-05-08T07:33:17.959Z,102097.13
2023-05-08T07:35:46.756Z,102099.16
2023-05-08T07:38:14.976Z,102086.69
2023-05-08T07:40:43.167Z,102096.59
2023-05-08T07:43:11.546Z,102089.59
2023-05-08T07:45:39.737Z,102097.13
2023-05-08T07:48:08.981Z,102089.72
2023-05-08T07:50:38.536Z,102092.50
2023-05-08T07:53:06.828Z,102097.22
2023-05-08T07:55:35.102Z,102092.97
2023-05-08T07:58:03.312Z,102099.31
2023-05-08T08:00:31.617Z,102098.19
2023-05-08T08:02:59.964Z,102097.06
2023-05-08T08:05:28.546Z,102098.72
2023-05-08T08:07:58.155Z,102092.16
2023-05-08T08:10:27.912Z,102094.59
2023-05-08T08:12:56.193Z,102097.72
2023-05-08T08:15:24.442Z,102093.44
2023-05-08T08:17:52.692Z,102097.78
2023-05-08T08:20:21.312Z,102098.19
2023-05-08T08:22:49.548Z,102096.66
2023-05-08T08:25:19.137Z,102095.09
2023-05-08T08:27:47.567Z,102097.13
2023-05-08T08:30:18.311Z,102099.19
2023-05-08T08:32:47.508Z,102095.31
2023-05-08T08:35:16.678Z,102099.22
2023-05-08T08:37:45.674Z,102103.53
2023-05-08T08:40:14.229Z,102096.00
2023-05-08T08:42:43.816Z,102089.69
2023-05-08T08:45:13.027Z,102095.56
2023-05-08T08:47:44.294Z,102096.34
2023-05-08T08:50:14.729Z,102095.19
2023-05-08T08:52:49.607Z,102097.16
2023-05-08T08:55:19.355Z,102087.78
2023-05-08T08:57:58.094Z,102092.09
2023-05-08T09:00:32.091Z,102089.34
2023-05-08T09:03:00.989Z,102087.38
2023-05-08T09:05:30.616Z,102089.72
2023-05-08T09:07:59.624Z,102086.66
2023-05-08T09:10:27.885Z,102081.34
2023-05-08T09:12:57.656Z,102079.09
2023-05-08T09:15:25.954Z,102070.19
2023-05-08T09:17:54.243Z,102067.88
2023-05-08T09:20:23.673Z,102069.06
2023-05-08T09:22:54.330Z,102068.28
2023-05-08T09:25:22.903Z,102068.31
2023-05-08T09:27:51.086Z,102070.25
2023-05-08T09:30:20.702Z,102070.69
2023-05-08T09:32:49.994Z,102071.44
2023-05-08T09:35:18.326Z,102073.00
2023-05-08T09:37:47.504Z,102066.31
2023-05-08T09:40:18.377Z,102063.97
2023-05-08T09:42:46.968Z,102069.84
2023-05-08T09:45:31.045Z,102069.47
2023-05-08T09:47:59.870Z,102074.59
2023-05-08T09:50:28.272Z,102071.06
2023-05-08T09:52:56.744Z,102073.03
2023-05-08T09:55:24.953Z,102064.75
2023-05-08T09:57:56.484Z,102067.50
2023-05-08T10:00:26.144Z,102073.75
2023-05-08T10:03:00.992Z,102063.94
2023-05-08T10:05:31.810Z,102076.09
2023-05-08T10:08:18.446Z,102063.91
2023-05-08T10:10:47.261Z,102065.88
2023-05-08T10:13:15.949Z,102058.00
2023-05-08T10:15:45.841Z,102066.66
2023-05-08T10:18:18.963Z,102073.75
2023-05-08T10:20:49.517Z,102069.84
2023-05-08T10:23:19.116Z,102052.56
2023-05-08T10:25:49.681Z,102057.28
2023-05-08T10:28:25.425Z,102059.66
2023-05-08T10:30:55.588Z,102057.66
2023-05-08T10:33:31.365Z,102054.16
2023-05-08T10:36:00.093Z,102054.91
2023-05-08T10:38:28.738Z,102059.66
2023-05-08T10:40:58.548Z,102055.72
2023-05-08T10:43:27.111Z,102049.06
2023-05-08T10:45:57.663Z,102056.13
2023-05-08T10:48:33.704Z,102055.34
2023-05-08T10:51:13.946Z,102047.09
2023-05-08T10:53:56.699Z,102052.59
2023-05-08T10:56:28.041Z,102043.19
2023-05-08T10:59:00.201Z,102048.66
2023-05-08T11:01:28.542Z,102052.63
2023-05-08T11:03:58.386Z,102041.22
2023-05-08T11:06:46.611Z,102048.69
2023-05-08T11:09:23.362Z,102051.06
2023-05-08T11:12:09.660Z,102044.34
2023-05-08T11:14:43.725Z,102042.00
2023-05-08T11:17:12.330Z,102041.63
2023-05-08T11:20:00.707Z,102034.56
2023-05-08T11:22:32.687Z,102039.25
2023-05-08T11:25:04.295Z,102031.81
2023-05-08T11:27:40.901Z,102032.19
2023-05-08T11:30:28.349Z,102038.47
2023-05-08T11:33:33.297Z,102038.84
2023-05-08T11:36:15.002Z,102035.34
2023-05-08T11:38:44.287Z,102027.50
2023-05-08T11:41:21.934Z,102035.34
2023-05-08T11:44:22.008Z,102027.84
2023-05-08T11:46:54.921Z,102031.38
2023-05-08T11:49:29.094Z,102030.22
2023-05-08T11:52:01.215Z,102030.22
2023-05-08T11:54:32.101Z,102024.31
2023-05-08T11:57:01.746Z,102030.59
2023-05-08T11:59:30.119Z,102030.59
2023-05-08T12:02:07.932Z,102037.25
2023-05-08T12:04:46.531Z,102035.25
2023-05-08T12:07:17.095Z,102041.56
2023-05-08T12:09:47.428Z,102038.00
2023-05-08T12:12:15.593Z,102032.53
2023-05-08T12:14:43.816Z,102034.50
2023-05-08T12:17:12.147Z,102036.09
2023-05-08T12:19:40.626Z,102030.97
2023-05-08T12:22:10.782Z,102025.91
2023-05-08T12:24:40.603Z,102024.34
2023-05-08T12:27:09.219Z,102026.69
2023-05-08T12:29:38.702Z,102028.66
2023-05-08T12:32:07.251Z,102034.97
2023-05-08T12:34:36.243Z,102022.75
2023-05-08T12:37:05.471Z,102027.47
2023-05-08T12:39:38.962Z,102021.22
2023-05-08T12:42:07.281Z,102019.63
2023-05-08T12:44:35.522Z,102029.06
2023-05-08T12:47:06.103Z,102026.69
2023-05-08T12:49:34.658Z,102017.25
2023-05-08T12:52:05.287Z,102009.41
2023-05-08T12:54:35.570Z,102014.13
2023-05-08T12:57:11.111Z,102012.53
2023-05-08T12:59:39.431Z,102003.50
2023-05-08T13:02:14.899Z,102000.72
2023-05-08T13:04:43.786Z,101990.47
2023-05-08T13:07:15.324Z,101995.22
2023-05-08T13:09:58.572Z,101994.00
2023-05-08T13:12:28.195Z,101987.69
2023-05-08T13:14:56.553Z,101995.53
2023-05-08T13:17:24.864Z,101996.28
2023-05-08T13:19:53.089Z,101987.63
2023-05-08T13:22:23.222Z,101986.41
2023-05-08T13:24:51.431Z,101980.91
2023-05-08T13:27:20.286Z,101980.91
2023-05-08T13:29:49.843Z,101981.28
2023-05-08T13:32:18.329Z,101976.16
2023-05-08T13:34:50.156Z,101971.03
2023-05-08T13:37:19.979Z,101978.09
2023-05-08T13:39:48.248Z,101967.09
2023-05-08T13:42:16.502Z,101974.56
2023-05-08T13:44:44.768Z,101965.47
2023-05-08T13:47:14.391Z,101961.94
2023-05-08T13:49:44.170Z,101960.38
2023-05-08T13:52:12.422Z,101961.53
2023-05-08T13:54:40.786Z,101957.97
2023-05-08T13:57:09.192Z,101958.75
2023-05-08T13:59:37.514Z,101959.56
2023-05-08T14:02:06.012Z,101958.81
2023-05-08T14:04:35.694Z,101957.97
2023-05-08T14:07:03.923Z,101952.47
2023-05-08T14:09:32.200Z,101954.47
2023-05-08T14:12:00.436Z,101951.22
2023-05-08T14:14:28.622Z,101942.97
2023-05-08T14:16:56.820Z,101949.19
2023-05-08T14:19:25.013Z,101955.84
2023-05-08T14:21:54.605Z,101949.53
2023-05-08T14:24:22.908Z,101942.06
2023-05-08T14:26:51.166Z,101944.44
2023-05-08T14:29:19.888Z,101953.50
2023-05-08T14:31:48.172Z,101944.47
2023-05-08T14:34:16.406Z,101956.34
2023-05-08T14:36:44.650Z,101952.06
2023-05-08T14:39:14.370Z,101947.03
2023-05-08T14:41:51.215Z,101950.63
2023-05-08T14:44:23.586Z,101942.75
2023-05-08T14:46:51.790Z,101947.13
2023-05-08T14:49:32.883Z,101950.25
2023-05-08T14:52:06.552Z,101954.97
2023-05-08T14:54:36.286Z,101948.31
2023-05-08T14:57:04.646Z,101947.88
2023-05-08T14:59:32.833Z,101951.84
2023-05-08T15:02:01.218Z,101942.41
2023-05-08T15:04:29.572Z,101950.28
2023-05-08T15:06:57.792Z,101946.34
2023-05-08T15:09:26.000Z,101947.88
2023-05-08T15:11:55.713Z,101942.03
2023-05-08T15:14:24.458Z,101949.13
2023-05-08T15:16:52.675Z,101949.91
2023-05-08T15:19:20.939Z,101948.38
2023-05-08T15:21:49.171Z,101949.59
2023-05-08T15:24:17.416Z,101940.63
2023-05-08T15:26:45.650Z,101937.88
2023-05-08T15:29:15.186Z,101948.09
2023-05-08T15:31:43.445Z,101941.03
2023-05-08T15:34:14.001Z,101932.78
2023-05-08T15:36:44.532Z,101938.69
2023-05-08T15:39:12.792Z,101937.13
2023-05-08T15:41:41.369Z,101932.41
2023-05-08T15:44:09.648Z,101925.34
2023-05-08T15:46:39.212Z,101931.63
2023-05-08T15:49:07.386Z,101926.91
2023-05-08T15:51:35.618Z,101922.59
2023-05-08T15:54:03.979Z,101926.13
2023-05-08T15:56:32.710Z,101918.66
2023-05-08T15:59:00.971Z,101925.34
2023-05-08T16:01:29.163Z,101915.13
2023-05-08T16:03:58.778Z,101911.19
2023-05-08T16:06:27.119Z,101910.78
2023-05-08T16:08:55.318Z,101908.81
2023-05-08T16:11:23.622Z,101910.38
2023-05-08T16:13:51.891Z,101909.22
2023-05-08T16:16:20.090Z,101908.81
2023-05-08T16:18:48.411Z,101911.16
2023-05-08T16:21:18.064Z,101916.25
2023-05-08T16:23:46.286Z,101911.16
2023-05-08T16:26:16.493Z,101911.16
2023-05-08T16:28:44.773Z,101916.66
2023-05-08T16:31:12.999Z,101913.50
2023-05-08T16:33:41.295Z,101910.34
2023-05-08T16:36:10.214Z,101916.63
2023-05-08T16:38:42.432Z,101909.16
2023-05-08T16:41:12.357Z,101908.78
2023-05-08T16:43:40.641Z,101903.63
2023-05-08T16:46:09.087Z,101904.44
2023-05-08T16:48:37.366Z,101900.50
2023-05-08T16:51:05.734Z,101890.28
2023-05-08T16:53:33.954Z,101896.97
2023-05-08T16:56:03.628Z,101891.88
2023-05-08T16:58:31.901Z,101897.78
2023-05-08T17:01:00.187Z,101889.16
2023-05-08T17:03:28.511Z,101893.88
2023-05-08T17:05:56.883Z,101893.50
2023-05-08T17:08:25.090Z,101895.84
2023-05-08T17:10:54.251Z,101890.75
2023-05-08T17:13:23.993Z,101890.38
2023-05-08T17:15:52.611Z,101891.19
2023-05-08T17:18:21.186Z,101885.31
2023-05-08T17:20:49.607Z,101889.63
2023-05-08T17:23:17.904Z,101890.81
2023-05-08T17:25:46.141Z,101889.25
2023-05-08T17:28:14.367Z,101885.31
2023-05-08T17:30:45.358Z,101886.88
2023-05-08T17:33:14.583Z,101887.66
2023-05-08T17:35:42.845Z,101897.88
2023-05-08T17:38:11.045Z,101902.97
2023-05-08T17:40:40.037Z,101907.69
2023-05-08T17:43:08.665Z,101909.66
2023-05-08T17:45:36.951Z,101903.81
2023-05-08T17:48:07.139Z,101899.47
2023-05-08T17:50:39.337Z,101901.44
2023-05-08T17:53:07.666Z,101897.91
2023-05-08T17:55:35.966Z,101896.34
2023-05-08T17:58:04.202Z,101891.66
2023-05-08T18:00:32.518Z,101897.94
2023-05-08T18:03:01.096Z,101886.16
2023-05-08T18:05:30.965Z,101895.56
2023-05-08T18:07:59.415Z,101897.16
2023-05-08T18:10:27.590Z,101904.22
2023-05-08T18:12:55.880Z,101907.34
2023-05-08T18:15:24.244Z,101901.06
2023-05-08T18:17:53.566Z,101904.59
2023-05-08T18:20:22.077Z,101897.16
2023-05-08T18:22:51.756Z,101907.75
2023-05-08T18:25:20.632Z,101897.94
2023-05-08T18:27:50.064Z,101905.38
2023-05-08T18:30:18.765Z,101893.63
2023-05-08T18:32:47.022Z,101890.50
2023-05-08T18:35:15.324Z,101892.47
2023-05-08T18:37:43.578Z,101890.09
2023-05-08T18:40:14.650Z,101897.16
2023-05-08T18:42:43.160Z,101903.84
2023-05-08T18:45:12.884Z,101906.59
2023-05-08T18:47:41.191Z,101903.06
2023-05-08T18:50:11.239Z,101900.72
2023-05-08T18:52:40.700Z,101898.72
2023-05-08T18:55:10.018Z,101899.53
2023-05-08T18:57:39.615Z,101897.19
2023-05-08T19:00:09.661Z,101890.13
2023-05-08T19:02:37.996Z,101892.50
2023-05-08T19:05:07.725Z,101890.88
2023-05-08T19:07:36.323Z,101882.69
2023-05-08T19:10:05.571Z,101885.41
2023-05-08T19:12:33.910Z,101888.19
2023-05-08T19:15:03.653Z,101890.53
2023-05-08T19:17:32.049Z,101892.06
2023-05-08T19:20:00.476Z,101892.09
2023-05-08T19:22:28.856Z,101881.47
2023-05-08T19:24:57.172Z,101887.34
2023-05-08T19:27:26.176Z,101895.56
2023-05-08T19:29:54.452Z,101887.34
2023-05-08T19:32:24.286Z,101890.50
2023-05-08T19:34:53.563Z,101888.13
2023-05-08T19:37:21.804Z,101890.09
2023-05-08T19:39:50.071Z,101888.94
2023-05-08T19:42:18.331Z,101901.09
2023-05-08T19:44:46.646Z,101902.63
2023-05-08T19:47:15.017Z,101891.28
2023-05-08T19:49:44.651Z,101883.81
2023-05-08T19:52:13.245Z,101890.47
2023-05-08T19:54:42.752Z,101891.63
2023-05-08T19:57:11.281Z,101887.75
2023-05-08T19:59:39.502Z,101873.22
2023-05-08T20:02:08.281Z,101887.31
2023-05-08T20:04:48.608Z,101888.91
2023-05-08T20:07:26.378Z,101888.91
2023-05-08T20:09:54.668Z,101888.50
2023-05-08T20:12:22.986Z,101888.84
2023-05-08T20:14:52.937Z,101883.78
2023-05-08T20:17:21.375Z,101893.19
2023-05-08T20:19:49.705Z,101886.13
2023-05-08T20:22:18.091Z,101887.28
2023-05-08T20:24:47.723Z,101885.34
2023-05-08T20:27:16.029Z,101883.38
2023-05-08T20:29:45.318Z,101885.31
2023-05-08T20:32:16.310Z,101885.31
2023-05-08T20:34:45.129Z,101883.38
2023-05-08T20:37:13.750Z,101875.50
2023-05-08T20:39:42.142Z,101885.28
2023-05-08T20:42:12.972Z,101884.09
2023-05-08T20:44:41.332Z,101877.06
2023-05-08T20:47:09.693Z,101876.69
2023-05-08T20:49:38.061Z,101875.06
2023-05-08T20:52:06.675Z,101883.31
2023-05-08T20:54:34.974Z,101877.41
2023-05-08T20:57:03.196Z,101882.91
2023-05-08T20:59:32.846Z,101875.88
2023-05-08T21:02:01.074Z,101866.44
2023-05-08T21:04:29.609Z,101876.63
2023-05-08T21:06:58.782Z,101876.63
2023-05-08T21:09:26.995Z,101879.78
2023-05-08T21:11:55.265Z,101874.31
2023-05-08T21:14:23.650Z,101880.16
2023-05-08T21:16:54.077Z,101883.69
2023-05-08T21:19:22.657Z,101872.28
2023-05-08T21:21:51.045Z,101886.81
2023-05-08T21:24:19.437Z,101867.22
2023-05-08T21:26:47.642Z,101871.53
2023-05-08T21:29:15.930Z,101868.78
2023-05-08T21:31:44.292Z,101866.81
2023-05-08T21:34:15.139Z,101856.63
2023-05-08T21:36:43.404Z,101858.22
2023-05-08T21:39:11.582Z,101860.97
2023-05-08T21:41:39.854Z,101853.91
2023-05-08T21:44:08.132Z,101850.78
2023-05-08T21:46:36.426Z,101852.72
2023-05-08T21:49:05.100Z,101859.38
2023-05-08T21:51:35.103Z,101857.03
2023-05-08T21:54:03.385Z,101853.91
2023-05-08T21:56:31.614Z,101857.84
2023-05-08T21:58:59.839Z,101855.84
2023-05-08T22:01:28.144Z,101848.41
2023-05-08T22:03:59.323Z,101841.72
2023-05-08T22:06:27.646Z,101851.41
2023-05-08T22:08:57.216Z,101837.88
2023-05-08T22:11:25.902Z,101843.28
2023-05-08T22:13:54.083Z,101840.50
2023-05-08T22:16:22.370Z,101836.19
2023-05-08T22:18:50.642Z,101840.84
2023-05-08T22:21:18.834Z,101833.78
2023-05-08T22:23:47.078Z,101834.56
2023-05-08T22:26:16.650Z,101837.66
2023-05-08T22:28:45.093Z,101839.19
2023-05-08T22:31:14.400Z,101838.00
2023-05-08T22:33:42.635Z,101843.06
2023-05-08T22:36:11.539Z,101837.56
2023-05-08T22:38:40.581Z,101847.72
2023-05-08T22:41:09.175Z,101845.00
2023-05-08T22:43:38.984Z,101840.63
2023-05-08T22:46:07.729Z,101840.63
2023-05-08T22:48:36.192Z,101835.94
2023-05-08T22:51:04.896Z,101832.00
2023-05-08T22:53:33.126Z,101826.50
2023-05-08T22:56:01.326Z,101826.50
2023-05-08T22:58:29.577Z,101822.53
2023-05-08T23:00:59.712Z,101815.53
2023-05-08T23:03:28.193Z,101817.03
2023-05-08T23:05:56.496Z,101815.44
2023-05-08T23:08:24.769Z,101811.53
2023-05-08T23:10:52.943Z,101820.09
2023-05-08T23:13:21.156Z,101806.78
2023-05-08T23:15:49.428Z,101808.38
2023-05-08T23:18:18.993Z,101795.88
2023-05-08T23:20:47.187Z,101786.53
2023-05-08T23:23:15.358Z,101783.78
2023-05-08T23:25:44.570Z,101781.00
2023-05-08T23:28:12.758Z,101785.31
2023-05-08T23:30:40.953Z,101786.84
2023-05-08T23:33:10.047Z,101784.06
2023-05-08T23:35:39.655Z,101784.06
2023-05-08T23:38:07.858Z,101786.41
2023-05-08T23:40:36.090Z,101787.19
2023-05-08T23:43:04.715Z,101773.16
2023-05-08T23:45:32.997Z,101774.75
2023-05-08T23:48:01.359Z,101770.06
2023-05-08T23:50:29.688Z,101776.31
2023-05-08T23:52:59.230Z,101770.84
2023-05-08T23:55:27.499Z,101777.94
2023-05-08T23:57:55.665Z,101765.38
